sensor_id;sensor_type;location;lat;lon;timestamp;P1;durP1;ratioP1;P2;durP2;ratioP2
41480;SDS011;27217;51.220;5.308;2023-07-16T00:01:54;12.90;;;4.13;;
41480;SDS011;27217;51.220;5.308;2023-07-16T00:04:21;7.13;;;3.63;;
41480;SDS011;27217;51.220;5.308;2023-07-16T00:06:48;8.60;;;3.13;;
41480;SDS011;27217;51.220;5.308;2023-07-16T00:09:14;6.88;;;2.88;;
41480;SDS011;27217;51.220;5.308;2023-07-16T00:11:39;6.85;;;3.25;;
41480;SDS011;27217;51.220;5.308;2023-07-16T00:14:06;12.23;;;2.97;;
41480;SDS011;27217;51.220;5.308;2023-07-16T00:16:31;8.95;;;2.92;;
41480;SDS011;27217;51.220;5.308;2023-07-16T00:18:58;15.07;;;3.15;;
41480;SDS011;27217;51.220;5.308;2023-07-16T00:21:23;10.82;;;3.10;;
41480;SDS011;27217;51.220;5.308;2023-07-16T00:23:49;10.40;;;3.03;;
41480;SDS011;27217;51.220;5.308;2023-07-16T00:26:15;15.35;;;3.28;;
41480;SDS011;27217;51.220;5.308;2023-07-16T00:28:42;8.18;;;2.55;;
41480;SDS011;27217;51.220;5.308;2023-07-16T00:31:09;5.55;;;2.00;;
41480;SDS011;27217;51.220;5.308;2023-07-16T00:33:35;6.18;;;2.80;;
41480;SDS011;27217;51.220;5.308;2023-07-16T00:36:01;9.75;;;3.05;;
41480;SDS011;27217;51.220;5.308;2023-07-16T00:38:27;8.55;;;2.80;;
41480;SDS011;27217;51.220;5.308;2023-07-16T00:40:53;8.63;;;3.00;;
41480;SDS011;27217;51.220;5.308;2023-07-16T00:43:18;9.02;;;2.72;;
41480;SDS011;27217;51.220;5.308;2023-07-16T00:45:45;6.15;;;2.30;;
41480;SDS011;27217;51.220;5.308;2023-07-16T00:48:11;10.93;;;2.80;;
41480;SDS011;27217;51.220;5.308;2023-07-16T00:50:38;10.98;;;2.60;;
41480;SDS011;27217;51.220;5.308;2023-07-16T00:53:08;13.43;;;2.40;;
41480;SDS011;27217;51.220;5.308;2023-07-16T00:55:35;10.52;;;2.63;;
41480;SDS011;27217;51.220;5.308;2023-07-16T00:58:03;10.02;;;3.10;;
41480;SDS011;27217;51.220;5.308;2023-07-16T01:00:40;7.47;;;2.70;;
41480;SDS011;27217;51.220;5.308;2023-07-16T01:03:09;10.02;;;2.65;;
41480;SDS011;27217;51.220;5.308;2023-07-16T01:05:38;12.52;;;3.30;;
41480;SDS011;27217;51.220;5.308;2023-07-16T01:08:06;6.63;;;2.83;;
41480;SDS011;27217;51.220;5.308;2023-07-16T01:10:37;10.20;;;2.90;;
41480;SDS011;27217;51.220;5.308;2023-07-16T01:13:04;13.27;;;3.60;;
41480;SDS011;27217;51.220;5.308;2023-07-16T01:15:30;16.52;;;3.10;;
41480;SDS011;27217;51.220;5.308;2023-07-16T01:17:56;12.52;;;3.80;;
41480;SDS011;27217;51.220;5.308;2023-07-16T01:20:21;12.45;;;3.17;;
41480;SDS011;27217;51.220;5.308;2023-07-16T01:28:49;10.35;;;4.00;;
41480;SDS011;27217;51.220;5.308;2023-07-16T01:31:36;8.00;;;3.10;;
41480;SDS011;27217;51.220;5.308;2023-07-16T01:34:03;10.10;;;3.58;;
41480;SDS011;27217;51.220;5.308;2023-07-16T01:36:30;11.95;;;4.13;;
41480;SDS011;27217;51.220;5.308;2023-07-16T01:38:59;8.10;;;3.65;;
41480;SDS011;27217;51.220;5.308;2023-07-16T01:41:25;11.85;;;3.60;;
41480;SDS011;27217;51.220;5.308;2023-07-16T01:43:51;10.82;;;4.18;;
41480;SDS011;27217;51.220;5.308;2023-07-16T01:46:17;11.68;;;3.30;;
41480;SDS011;27217;51.220;5.308;2023-07-16T01:48:44;10.00;;;3.30;;
41480;SDS011;27217;51.220;5.308;2023-07-16T01:51:09;9.57;;;3.60;;
41480;SDS011;27217;51.220;5.308;2023-07-16T01:53:39;5.20;;;3.30;;
41480;SDS011;27217;51.220;5.308;2023-07-16T01:56:05;9.32;;;3.33;;
41480;SDS011;27217;51.220;5.308;2023-07-16T01:58:31;8.98;;;3.17;;
41480;SDS011;27217;51.220;5.308;2023-07-16T02:00:57;13.63;;;3.72;;
41480;SDS011;27217;51.220;5.308;2023-07-16T02:03:22;7.30;;;3.20;;
41480;SDS011;27217;51.220;5.308;2023-07-16T02:05:48;8.70;;;3.20;;
41480;SDS011;27217;51.220;5.308;2023-07-16T02:08:17;7.93;;;2.90;;
41480;SDS011;27217;51.220;5.308;2023-07-16T02:10:43;6.18;;;3.58;;
41480;SDS011;27217;51.220;5.308;2023-07-16T02:13:09;11.07;;;3.03;;
41480;SDS011;27217;51.220;5.308;2023-07-16T02:15:35;19.05;;;3.38;;
41480;SDS011;27217;51.220;5.308;2023-07-16T02:18:04;12.07;;;2.97;;
41480;SDS011;27217;51.220;5.308;2023-07-16T02:20:30;13.15;;;2.92;;
41480;SDS011;27217;51.220;5.308;2023-07-16T02:22:56;12.98;;;2.90;;
41480;SDS011;27217;51.220;5.308;2023-07-16T02:25:22;10.95;;;3.30;;
41480;SDS011;27217;51.220;5.308;2023-07-16T02:27:48;12.00;;;2.97;;
41480;SDS011;27217;51.220;5.308;2023-07-16T02:30:14;11.20;;;3.13;;
41480;SDS011;27217;51.220;5.308;2023-07-16T02:32:40;12.70;;;3.15;;
41480;SDS011;27217;51.220;5.308;2023-07-16T02:35:07;14.25;;;3.05;;
41480;SDS011;27217;51.220;5.308;2023-07-16T02:37:33;6.53;;;2.78;;
41480;SDS011;27217;51.220;5.308;2023-07-16T02:39:59;10.63;;;3.40;;
41480;SDS011;27217;51.220;5.308;2023-07-16T02:42:24;10.77;;;3.70;;
41480;SDS011;27217;51.220;5.308;2023-07-16T02:44:51;7.80;;;2.58;;
41480;SDS011;27217;51.220;5.308;2023-07-16T02:47:17;10.45;;;3.25;;
41480;SDS011;27217;51.220;5.308;2023-07-16T02:49:43;11.70;;;3.33;;
41480;SDS011;27217;51.220;5.308;2023-07-16T02:52:08;12.30;;;2.92;;
41480;SDS011;27217;51.220;5.308;2023-07-16T02:54:37;14.85;;;3.25;;
41480;SDS011;27217;51.220;5.308;2023-07-16T02:57:03;13.85;;;3.38;;
41480;SDS011;27217;51.220;5.308;2023-07-16T02:59:30;16.92;;;4.28;;
41480;SDS011;27217;51.220;5.308;2023-07-16T03:01:56;7.97;;;2.67;;
41480;SDS011;27217;51.220;5.308;2023-07-16T03:04:22;14.55;;;3.15;;
41480;SDS011;27217;51.220;5.308;2023-07-16T03:06:48;10.30;;;3.30;;
41480;SDS011;27217;51.220;5.308;2023-07-16T03:09:14;16.05;;;2.90;;
41480;SDS011;27217;51.220;5.308;2023-07-16T03:11:39;11.48;;;3.15;;
41480;SDS011;27217;51.220;5.308;2023-07-16T03:14:05;12.45;;;3.22;;
41480;SDS011;27217;51.220;5.308;2023-07-16T03:16:31;11.10;;;3.53;;
41480;SDS011;27217;51.220;5.308;2023-07-16T03:18:57;10.50;;;3.40;;
41480;SDS011;27217;51.220;5.308;2023-07-16T03:21:23;10.80;;;3.33;;
41480;SDS011;27217;51.220;5.308;2023-07-16T03:23:48;10.13;;;3.40;;
41480;SDS011;27217;51.220;5.308;2023-07-16T03:26:14;8.98;;;2.83;;
41480;SDS011;27217;51.220;5.308;2023-07-16T03:28:40;14.50;;;4.07;;
41480;SDS011;27217;51.220;5.308;2023-07-16T03:31:06;11.80;;;3.33;;
41480;SDS011;27217;51.220;5.308;2023-07-16T03:33:31;9.73;;;3.28;;
41480;SDS011;27217;51.220;5.308;2023-07-16T03:35:57;13.57;;;4.40;;
41480;SDS011;27217;51.220;5.308;2023-07-16T03:38:23;16.60;;;4.28;;
41480;SDS011;27217;51.220;5.308;2023-07-16T03:40:49;15.50;;;4.05;;
41480;SDS011;27217;51.220;5.308;2023-07-16T03:43:16;10.35;;;3.40;;
41480;SDS011;27217;51.220;5.308;2023-07-16T03:45:42;15.02;;;4.00;;
41480;SDS011;27217;51.220;5.308;2023-07-16T03:48:08;12.38;;;4.18;;
41480;SDS011;27217;51.220;5.308;2023-07-16T03:50:34;17.45;;;4.10;;
41480;SDS011;27217;51.220;5.308;2023-07-16T03:53:00;15.05;;;4.30;;
41480;SDS011;27217;51.220;5.308;2023-07-16T03:55:28;11.60;;;4.30;;
41480;SDS011;27217;51.220;5.308;2023-07-16T03:57:54;19.05;;;4.35;;
41480;SDS011;27217;51.220;5.308;2023-07-16T04:00:20;8.65;;;4.18;;
41480;SDS011;27217;51.220;5.308;2023-07-16T04:02:45;12.75;;;3.88;;
41480;SDS011;27217;51.220;5.308;2023-07-16T04:05:12;18.75;;;4.32;;
41480;SDS011;27217;51.220;5.308;2023-07-16T04:07:37;17.55;;;4.07;;
41480;SDS011;27217;51.220;5.308;2023-07-16T04:10:05;16.02;;;4.45;;
41480;SDS011;27217;51.220;5.308;2023-07-16T04:12:32;17.00;;;4.72;;
41480;SDS011;27217;51.220;5.308;2023-07-16T04:14:58;12.32;;;4.72;;
41480;SDS011;27217;51.220;5.308;2023-07-16T04:17:25;9.43;;;3.72;;
41480;SDS011;27217;51.220;5.308;2023-07-16T04:19:51;13.48;;;4.40;;
41480;SDS011;27217;51.220;5.308;2023-07-16T04:22:18;14.48;;;3.75;;
41480;SDS011;27217;51.220;5.308;2023-07-16T04:24:43;15.95;;;4.82;;
41480;SDS011;27217;51.220;5.308;2023-07-16T04:27:09;14.15;;;4.43;;
41480;SDS011;27217;51.220;5.308;2023-07-16T04:29:35;12.10;;;4.05;;
41480;SDS011;27217;51.220;5.308;2023-07-16T04:32:03;15.13;;;4.50;;
41480;SDS011;27217;51.220;5.308;2023-07-16T04:34:29;9.70;;;3.72;;
41480;SDS011;27217;51.220;5.308;2023-07-16T04:36:56;12.48;;;4.35;;
41480;SDS011;27217;51.220;5.308;2023-07-16T04:39:22;15.82;;;4.70;;
41480;SDS011;27217;51.220;5.308;2023-07-16T04:41:48;11.13;;;4.72;;
41480;SDS011;27217;51.220;5.308;2023-07-16T04:44:13;14.98;;;4.90;;
41480;SDS011;27217;51.220;5.308;2023-07-16T04:46:39;17.10;;;4.65;;
41480;SDS011;27217;51.220;5.308;2023-07-16T04:49:05;10.57;;;4.40;;
41480;SDS011;27217;51.220;5.308;2023-07-16T04:51:31;8.10;;;3.28;;
41480;SDS011;27217;51.220;5.308;2023-07-16T04:53:57;14.40;;;4.25;;
41480;SDS011;27217;51.220;5.308;2023-07-16T04:56:23;15.02;;;4.20;;
41480;SDS011;27217;51.220;5.308;2023-07-16T04:58:49;11.93;;;4.78;;
41480;SDS011;27217;51.220;5.308;2023-07-16T05:01:15;11.75;;;4.32;;
41480;SDS011;27217;51.220;5.308;2023-07-16T05:03:41;13.13;;;4.20;;
41480;SDS011;27217;51.220;5.308;2023-07-16T05:06:06;19.65;;;4.75;;
41480;SDS011;27217;51.220;5.308;2023-07-16T05:08:32;15.48;;;5.80;;
41480;SDS011;27217;51.220;5.308;2023-07-16T05:10:58;16.15;;;4.43;;
41480;SDS011;27217;51.220;5.308;2023-07-16T05:13:24;14.85;;;4.53;;
41480;SDS011;27217;51.220;5.308;2023-07-16T05:15:50;17.13;;;5.00;;
41480;SDS011;27217;51.220;5.308;2023-07-16T05:18:16;13.45;;;4.15;;
41480;SDS011;27217;51.220;5.308;2023-07-16T05:20:42;13.05;;;4.97;;
41480;SDS011;27217;51.220;5.308;2023-07-16T05:23:09;11.10;;;4.57;;
41480;SDS011;27217;51.220;5.308;2023-07-16T05:25:35;12.73;;;4.85;;
41480;SDS011;27217;51.220;5.308;2023-07-16T05:28:01;13.82;;;4.50;;
41480;SDS011;27217;51.220;5.308;2023-07-16T05:30:27;20.02;;;6.00;;
41480;SDS011;27217;51.220;5.308;2023-07-16T05:32:53;13.68;;;5.07;;
41480;SDS011;27217;51.220;5.308;2023-07-16T05:35:18;16.02;;;6.15;;
41480;SDS011;27217;51.220;5.308;2023-07-16T05:37:44;21.10;;;5.15;;
41480;SDS011;27217;51.220;5.308;2023-07-16T05:40:10;15.40;;;4.30;;
41480;SDS011;27217;51.220;5.308;2023-07-16T05:42:36;11.82;;;5.28;;
41480;SDS011;27217;51.220;5.308;2023-07-16T05:45:03;12.43;;;4.88;;
41480;SDS011;27217;51.220;5.308;2023-07-16T05:47:29;13.73;;;4.60;;
41480;SDS011;27217;51.220;5.308;2023-07-16T05:49:55;10.45;;;4.78;;
41480;SDS011;27217;51.220;5.308;2023-07-16T05:52:20;15.00;;;4.43;;
41480;SDS011;27217;51.220;5.308;2023-07-16T05:54:46;11.93;;;4.80;;
41480;SDS011;27217;51.220;5.308;2023-07-16T05:57:12;14.90;;;5.55;;
41480;SDS011;27217;51.220;5.308;2023-07-16T05:59:38;20.83;;;5.95;;
41480;SDS011;27217;51.220;5.308;2023-07-16T06:02:05;13.82;;;4.72;;
41480;SDS011;27217;51.220;5.308;2023-07-16T06:04:31;13.88;;;4.95;;
41480;SDS011;27217;51.220;5.308;2023-07-16T06:06:57;12.07;;;4.93;;
41480;SDS011;27217;51.220;5.308;2023-07-16T06:09:23;17.77;;;6.13;;
41480;SDS011;27217;51.220;5.308;2023-07-16T06:11:49;11.93;;;5.07;;
41480;SDS011;27217;51.220;5.308;2023-07-16T06:14:15;21.60;;;5.95;;
41480;SDS011;27217;51.220;5.308;2023-07-16T06:16:41;18.48;;;5.28;;
41480;SDS011;27217;51.220;5.308;2023-07-16T06:19:07;14.32;;;6.20;;
41480;SDS011;27217;51.220;5.308;2023-07-16T06:21:33;16.55;;;5.63;;
41480;SDS011;27217;51.220;5.308;2023-07-16T06:23:58;13.25;;;6.35;;
41480;SDS011;27217;51.220;5.308;2023-07-16T06:26:24;18.85;;;6.72;;
41480;SDS011;27217;51.220;5.308;2023-07-16T06:28:53;19.67;;;6.28;;
41480;SDS011;27217;51.220;5.308;2023-07-16T06:31:19;17.25;;;6.35;;
41480;SDS011;27217;51.220;5.308;2023-07-16T06:33:45;15.20;;;5.78;;
41480;SDS011;27217;51.220;5.308;2023-07-16T06:36:12;19.48;;;5.55;;
41480;SDS011;27217;51.220;5.308;2023-07-16T06:38:38;17.95;;;6.15;;
41480;SDS011;27217;51.220;5.308;2023-07-16T06:41:03;9.95;;;5.47;;
41480;SDS011;27217;51.220;5.308;2023-07-16T06:43:30;20.42;;;5.80;;
41480;SDS011;27217;51.220;5.308;2023-07-16T06:45:55;19.50;;;5.93;;
41480;SDS011;27217;51.220;5.308;2023-07-16T06:48:21;12.73;;;5.22;;
41480;SDS011;27217;51.220;5.308;2023-07-16T06:50:47;12.63;;;5.93;;
41480;SDS011;27217;51.220;5.308;2023-07-16T06:53:14;15.10;;;5.97;;
41480;SDS011;27217;51.220;5.308;2023-07-16T06:55:43;15.07;;;5.85;;
41480;SDS011;27217;51.220;5.308;2023-07-16T06:58:13;22.02;;;6.05;;
41480;SDS011;27217;51.220;5.308;2023-07-16T07:00:40;13.77;;;5.68;;
41480;SDS011;27217;51.220;5.308;2023-07-16T07:03:06;13.68;;;6.18;;
41480;SDS011;27217;51.220;5.308;2023-07-16T07:05:40;15.07;;;6.57;;
41480;SDS011;27217;51.220;5.308;2023-07-16T07:08:06;22.15;;;5.95;;
41480;SDS011;27217;51.220;5.308;2023-07-16T07:10:33;14.25;;;5.88;;
41480;SDS011;27217;51.220;5.308;2023-07-16T07:13:02;13.18;;;5.60;;
41480;SDS011;27217;51.220;5.308;2023-07-16T07:15:28;16.48;;;6.13;;
41480;SDS011;27217;51.220;5.308;2023-07-16T07:17:53;18.85;;;6.60;;
41480;SDS011;27217;51.220;5.308;2023-07-16T07:20:19;13.63;;;5.53;;
41480;SDS011;27217;51.220;5.308;2023-07-16T07:22:45;17.83;;;5.85;;
41480;SDS011;27217;51.220;5.308;2023-07-16T07:25:11;15.35;;;5.82;;
41480;SDS011;27217;51.220;5.308;2023-07-16T07:27:37;13.48;;;5.50;;
41480;SDS011;27217;51.220;5.308;2023-07-16T07:30:06;18.60;;;6.43;;
41480;SDS011;27217;51.220;5.308;2023-07-16T07:32:36;21.77;;;6.70;;
41480;SDS011;27217;51.220;5.308;2023-07-16T07:35:03;17.50;;;6.10;;
41480;SDS011;27217;51.220;5.308;2023-07-16T07:37:30;15.80;;;5.82;;
41480;SDS011;27217;51.220;5.308;2023-07-16T07:39:56;15.07;;;5.20;;
41480;SDS011;27217;51.220;5.308;2023-07-16T07:42:24;14.45;;;4.75;;
41480;SDS011;27217;51.220;5.308;2023-07-16T07:44:51;17.88;;;6.07;;
41480;SDS011;27217;51.220;5.308;2023-07-16T07:47:17;15.73;;;6.00;;
41480;SDS011;27217;51.220;5.308;2023-07-16T07:49:43;13.63;;;5.60;;
41480;SDS011;27217;51.220;5.308;2023-07-16T07:52:09;13.63;;;4.53;;
41480;SDS011;27217;51.220;5.308;2023-07-16T07:54:35;11.13;;;5.32;;
41480;SDS011;27217;51.220;5.308;2023-07-16T07:57:01;20.75;;;5.25;;
41480;SDS011;27217;51.220;5.308;2023-07-16T07:59:28;19.15;;;5.45;;
41480;SDS011;27217;51.220;5.308;2023-07-16T08:01:55;11.30;;;4.90;;
41480;SDS011;27217;51.220;5.308;2023-07-16T08:04:20;14.52;;;5.95;;
41480;SDS011;27217;51.220;5.308;2023-07-16T08:06:46;13.98;;;5.80;;
41480;SDS011;27217;51.220;5.308;2023-07-16T08:09:12;13.02;;;5.65;;
41480;SDS011;27217;51.220;5.308;2023-07-16T08:11:38;16.00;;;5.88;;
41480;SDS011;27217;51.220;5.308;2023-07-16T08:14:04;11.73;;;4.47;;
41480;SDS011;27217;51.220;5.308;2023-07-16T08:16:30;14.13;;;5.30;;
41480;SDS011;27217;51.220;5.308;2023-07-16T08:18:56;14.85;;;5.00;;
41480;SDS011;27217;51.220;5.308;2023-07-16T08:21:21;15.13;;;5.50;;
41480;SDS011;27217;51.220;5.308;2023-07-16T08:23:48;14.60;;;5.03;;
41480;SDS011;27217;51.220;5.308;2023-07-16T08:26:14;9.88;;;4.68;;
41480;SDS011;27217;51.220;5.308;2023-07-16T08:28:41;13.95;;;5.60;;
41480;SDS011;27217;51.220;5.308;2023-07-16T08:31:07;17.17;;;5.13;;
41480;SDS011;27217;51.220;5.308;2023-07-16T08:33:33;14.80;;;5.43;;
41480;SDS011;27217;51.220;5.308;2023-07-16T08:35:58;15.88;;;4.60;;
41480;SDS011;27217;51.220;5.308;2023-07-16T08:38:24;13.85;;;5.13;;
41480;SDS011;27217;51.220;5.308;2023-07-16T08:40:50;11.02;;;4.20;;
41480;SDS011;27217;51.220;5.308;2023-07-16T08:43:16;6.68;;;3.95;;
41480;SDS011;27217;51.220;5.308;2023-07-16T08:45:42;17.92;;;4.15;;
41480;SDS011;27217;51.220;5.308;2023-07-16T08:48:10;12.32;;;4.63;;
41480;SDS011;27217;51.220;5.308;2023-07-16T08:50:37;13.32;;;5.40;;
41480;SDS011;27217;51.220;5.308;2023-07-16T08:53:07;10.07;;;5.00;;
41480;SDS011;27217;51.220;5.308;2023-07-16T08:55:33;13.93;;;5.20;;
41480;SDS011;27217;51.220;5.308;2023-07-16T08:58:01;10.07;;;5.03;;
41480;SDS011;27217;51.220;5.308;2023-07-16T09:00:29;14.82;;;6.32;;
41480;SDS011;27217;51.220;5.308;2023-07-16T09:02:55;14.70;;;4.40;;
41480;SDS011;27217;51.220;5.308;2023-07-16T09:05:21;6.88;;;3.10;;
41480;SDS011;27217;51.220;5.308;2023-07-16T09:07:48;7.32;;;4.05;;
41480;SDS011;27217;51.220;5.308;2023-07-16T09:10:14;9.27;;;4.22;;
41480;SDS011;27217;51.220;5.308;2023-07-16T09:12:44;10.15;;;3.90;;
41480;SDS011;27217;51.220;5.308;2023-07-16T09:15:11;10.60;;;3.97;;
41480;SDS011;27217;51.220;5.308;2023-07-16T09:17:38;12.80;;;3.95;;
41480;SDS011;27217;51.220;5.308;2023-07-16T09:20:04;10.30;;;3.78;;
41480;SDS011;27217;51.220;5.308;2023-07-16T09:22:32;9.20;;;4.00;;
41480;SDS011;27217;51.220;5.308;2023-07-16T09:24:59;9.50;;;4.18;;
41480;SDS011;27217;51.220;5.308;2023-07-16T09:27:30;8.77;;;3.78;;
41480;SDS011;27217;51.220;5.308;2023-07-16T09:29:57;7.88;;;3.67;;
41480;SDS011;27217;51.220;5.308;2023-07-16T09:32:36;7.40;;;3.97;;
41480;SDS011;27217;51.220;5.308;2023-07-16T09:35:11;8.85;;;3.22;;
41480;SDS011;27217;51.220;5.308;2023-07-16T09:37:41;12.20;;;4.35;;
41480;SDS011;27217;51.220;5.308;2023-07-16T09:40:09;10.50;;;4.13;;
41480;SDS011;27217;51.220;5.308;2023-07-16T09:42:39;11.88;;;3.67;;
41480;SDS011;27217;51.220;5.308;2023-07-16T09:45:06;8.07;;;3.60;;
41480;SDS011;27217;51.220;5.308;2023-07-16T09:47:37;13.77;;;3.40;;
41480;SDS011;27217;51.220;5.308;2023-07-16T09:50:03;9.68;;;3.55;;
41480;SDS011;27217;51.220;5.308;2023-07-16T09:52:32;7.30;;;3.20;;
41480;SDS011;27217;51.220;5.308;2023-07-16T09:54:59;14.07;;;3.30;;
41480;SDS011;27217;51.220;5.308;2023-07-16T09:57:28;13.23;;;4.20;;
41480;SDS011;27217;51.220;5.308;2023-07-16T09:59:58;5.50;;;3.38;;
41480;SDS011;27217;51.220;5.308;2023-07-16T10:02:29;8.38;;;3.67;;
41480;SDS011;27217;51.220;5.308;2023-07-16T10:04:57;8.15;;;3.65;;
41480;SDS011;27217;51.220;5.308;2023-07-16T10:07:24;8.25;;;3.13;;
41480;SDS011;27217;51.220;5.308;2023-07-16T10:10:00;13.00;;;3.83;;
41480;SDS011;27217;51.220;5.308;2023-07-16T10:12:34;7.65;;;3.55;;
41480;SDS011;27217;51.220;5.308;2023-07-16T10:15:00;8.27;;;3.33;;
41480;SDS011;27217;51.220;5.308;2023-07-16T10:17:29;7.97;;;3.75;;
41480;SDS011;27217;51.220;5.308;2023-07-16T10:19:57;6.85;;;3.13;;
41480;SDS011;27217;51.220;5.308;2023-07-16T10:22:43;6.22;;;3.35;;
41480;SDS011;27217;51.220;5.308;2023-07-16T10:27:44;7.03;;;3.83;;
41480;SDS011;27217;51.220;5.308;2023-07-16T10:30:11;8.50;;;3.38;;
41480;SDS011;27217;51.220;5.308;2023-07-16T10:32:37;11.45;;;3.95;;
41480;SDS011;27217;51.220;5.308;2023-07-16T10:35:04;9.93;;;3.65;;
41480;SDS011;27217;51.220;5.308;2023-07-16T10:37:35;9.23;;;3.42;;
41480;SDS011;27217;51.220;5.308;2023-07-16T10:40:02;7.20;;;2.72;;
41480;SDS011;27217;51.220;5.308;2023-07-16T10:42:30;9.88;;;3.60;;
41480;SDS011;27217;51.220;5.308;2023-07-16T10:45:01;8.43;;;3.10;;
41480;SDS011;27217;51.220;5.308;2023-07-16T10:47:30;9.70;;;3.15;;
41480;SDS011;27217;51.220;5.308;2023-07-16T10:50:00;7.13;;;2.95;;
41480;SDS011;27217;51.220;5.308;2023-07-16T10:52:28;11.15;;;3.40;;
41480;SDS011;27217;51.220;5.308;2023-07-16T10:54:54;7.88;;;3.08;;
41480;SDS011;27217;51.220;5.308;2023-07-16T10:57:24;10.23;;;3.33;;
41480;SDS011;27217;51.220;5.308;2023-07-16T10:59:50;11.93;;;3.25;;
41480;SDS011;27217;51.220;5.308;2023-07-16T11:02:17;7.80;;;3.92;;
41480;SDS011;27217;51.220;5.308;2023-07-16T11:04:46;5.95;;;3.38;;
41480;SDS011;27217;51.220;5.308;2023-07-16T11:07:14;6.40;;;3.70;;
41480;SDS011;27217;51.220;5.308;2023-07-16T11:09:43;11.63;;;3.50;;
41480;SDS011;27217;51.220;5.308;2023-07-16T11:12:31;11.65;;;3.63;;
41480;SDS011;27217;51.220;5.308;2023-07-16T11:14:58;12.35;;;3.72;;
41480;SDS011;27217;51.220;5.308;2023-07-16T11:17:23;8.18;;;3.67;;
41480;SDS011;27217;51.220;5.308;2023-07-16T11:19:50;12.60;;;3.40;;
41480;SDS011;27217;51.220;5.308;2023-07-16T11:22:17;9.52;;;4.00;;
41480;SDS011;27217;51.220;5.308;2023-07-16T11:24:50;12.55;;;3.47;;
41480;SDS011;27217;51.220;5.308;2023-07-16T11:27:17;8.45;;;3.40;;
41480;SDS011;27217;51.220;5.308;2023-07-16T11:29:49;6.10;;;3.30;;
41480;SDS011;27217;51.220;5.308;2023-07-16T11:34:58;10.90;;;4.10;;
41480;SDS011;27217;51.220;5.308;2023-07-16T11:37:25;9.43;;;3.75;;
41480;SDS011;27217;51.220;5.308;2023-07-16T11:39:56;6.90;;;3.50;;
41480;SDS011;27217;51.220;5.308;2023-07-16T11:42:24;9.27;;;3.50;;
41480;SDS011;27217;51.220;5.308;2023-07-16T11:44:57;9.70;;;3.72;;
41480;SDS011;27217;51.220;5.308;2023-07-16T11:47:23;9.50;;;3.78;;
41480;SDS011;27217;51.220;5.308;2023-07-16T11:49:49;12.82;;;3.72;;
41480;SDS011;27217;51.220;5.308;2023-07-16T11:52:20;10.68;;;3.85;;
41480;SDS011;27217;51.220;5.308;2023-07-16T11:54:51;4.38;;;3.03;;
41480;SDS011;27217;51.220;5.308;2023-07-16T11:57:18;10.68;;;3.70;;
41480;SDS011;27217;51.220;5.308;2023-07-16T11:59:44;13.60;;;3.25;;
41480;SDS011;27217;51.220;5.308;2023-07-16T12:02:10;11.20;;;3.70;;
41480;SDS011;27217;51.220;5.308;2023-07-16T12:04:36;10.70;;;3.40;;
41480;SDS011;27217;51.220;5.308;2023-07-16T12:07:02;8.60;;;3.70;;
41480;SDS011;27217;51.220;5.308;2023-07-16T12:09:28;9.18;;;4.32;;
41480;SDS011;27217;51.220;5.308;2023-07-16T12:11:54;7.00;;;3.42;;
41480;SDS011;27217;51.220;5.308;2023-07-16T12:14:21;9.52;;;3.42;;
41480;SDS011;27217;51.220;5.308;2023-07-16T12:16:47;8.23;;;3.88;;
41480;SDS011;27217;51.220;5.308;2023-07-16T12:19:13;10.05;;;4.20;;
41480;SDS011;27217;51.220;5.308;2023-07-16T12:21:39;8.50;;;3.33;;
41480;SDS011;27217;51.220;5.308;2023-07-16T12:24:05;6.68;;;3.35;;
41480;SDS011;27217;51.220;5.308;2023-07-16T12:26:31;7.05;;;3.53;;
41480;SDS011;27217;51.220;5.308;2023-07-16T12:29:00;9.18;;;3.50;;
41480;SDS011;27217;51.220;5.308;2023-07-16T12:31:32;9.73;;;3.33;;
41480;SDS011;27217;51.220;5.308;2023-07-16T12:33:59;8.27;;;3.53;;
41480;SDS011;27217;51.220;5.308;2023-07-16T12:36:29;8.23;;;3.75;;
41480;SDS011;27217;51.220;5.308;2023-07-16T12:38:55;6.03;;;3.65;;
41480;SDS011;27217;51.220;5.308;2023-07-16T12:41:26;11.98;;;3.33;;
41480;SDS011;27217;51.220;5.308;2023-07-16T12:43:52;8.32;;;3.45;;
41480;SDS011;27217;51.220;5.308;2023-07-16T12:46:17;8.48;;;3.05;;
41480;SDS011;27217;51.220;5.308;2023-07-16T12:48:44;10.13;;;3.40;;
41480;SDS011;27217;51.220;5.308;2023-07-16T12:51:10;8.40;;;3.83;;
41480;SDS011;27217;51.220;5.308;2023-07-16T12:53:36;12.18;;;3.03;;
41480;SDS011;27217;51.220;5.308;2023-07-16T12:56:03;5.70;;;3.63;;
41480;SDS011;27217;51.220;5.308;2023-07-16T12:58:29;8.35;;;4.03;;
41480;SDS011;27217;51.220;5.308;2023-07-16T13:00:55;6.88;;;3.80;;
41480;SDS011;27217;51.220;5.308;2023-07-16T13:03:21;10.65;;;3.38;;
41480;SDS011;27217;51.220;5.308;2023-07-16T13:05:47;10.43;;;4.15;;
41480;SDS011;27217;51.220;5.308;2023-07-16T13:08:13;8.55;;;4.00;;
41480;SDS011;27217;51.220;5.308;2023-07-16T13:10:39;11.25;;;3.58;;
41480;SDS011;27217;51.220;5.308;2023-07-16T13:13:05;8.20;;;3.20;;
41480;SDS011;27217;51.220;5.308;2023-07-16T13:15:32;7.88;;;3.47;;
41480;SDS011;27217;51.220;5.308;2023-07-16T13:17:59;6.95;;;3.80;;
41480;SDS011;27217;51.220;5.308;2023-07-16T13:20:25;9.80;;;3.67;;
41480;SDS011;27217;51.220;5.308;2023-07-16T13:22:51;6.50;;;2.53;;
41480;SDS011;27217;51.220;5.308;2023-07-16T13:25:16;10.13;;;3.10;;
41480;SDS011;27217;51.220;5.308;2023-07-16T13:27:42;8.38;;;2.80;;
41480;SDS011;27217;51.220;5.308;2023-07-16T13:30:08;5.43;;;2.70;;
41480;SDS011;27217;51.220;5.308;2023-07-16T13:32:34;8.80;;;3.55;;
41480;SDS011;27217;51.220;5.308;2023-07-16T13:35:00;8.25;;;3.20;;
41480;SDS011;27217;51.220;5.308;2023-07-16T13:37:26;6.25;;;3.17;;
41480;SDS011;27217;51.220;5.308;2023-07-16T13:39:51;6.65;;;3.03;;
41480;SDS011;27217;51.220;5.308;2023-07-16T13:42:17;7.97;;;3.45;;
41480;SDS011;27217;51.220;5.308;2023-07-16T13:44:44;5.50;;;2.45;;
41480;SDS011;27217;51.220;5.308;2023-07-16T13:47:10;6.32;;;3.22;;
41480;SDS011;27217;51.220;5.308;2023-07-16T13:49:36;10.32;;;3.47;;
41480;SDS011;27217;51.220;5.308;2023-07-16T13:52:02;7.97;;;3.30;;
41480;SDS011;27217;51.220;5.308;2023-07-16T13:54:48;7.32;;;2.92;;
41480;SDS011;27217;51.220;5.308;2023-07-16T13:57:14;5.78;;;2.80;;
41480;SDS011;27217;51.220;5.308;2023-07-16T13:59:40;6.82;;;2.80;;
41480;SDS011;27217;51.220;5.308;2023-07-16T14:02:06;5.65;;;2.92;;
41480;SDS011;27217;51.220;5.308;2023-07-16T14:04:32;8.68;;;2.60;;
41480;SDS011;27217;51.220;5.308;2023-07-16T14:06:58;5.05;;;2.90;;
41480;SDS011;27217;51.220;5.308;2023-07-16T14:09:25;6.72;;;3.30;;
41480;SDS011;27217;51.220;5.308;2023-07-16T14:11:51;9.43;;;3.30;;
41480;SDS011;27217;51.220;5.308;2023-07-16T14:14:18;7.78;;;2.45;;
41480;SDS011;27217;51.220;5.308;2023-07-16T14:16:44;8.38;;;3.17;;
41480;SDS011;27217;51.220;5.308;2023-07-16T14:19:10;11.93;;;3.60;;
41480;SDS011;27217;51.220;5.308;2023-07-16T14:21:56;6.13;;;3.28;;
41480;SDS011;27217;51.220;5.308;2023-07-16T14:24:21;8.75;;;2.78;;
41480;SDS011;27217;51.220;5.308;2023-07-16T14:26:48;6.07;;;2.97;;
41480;SDS011;27217;51.220;5.308;2023-07-16T14:29:14;10.05;;;2.88;;
41480;SDS011;27217;51.220;5.308;2023-07-16T14:31:40;7.82;;;3.17;;
41480;SDS011;27217;51.220;5.308;2023-07-16T14:34:06;9.18;;;3.20;;
41480;SDS011;27217;51.220;5.308;2023-07-16T14:36:32;6.47;;;3.17;;
41480;SDS011;27217;51.220;5.308;2023-07-16T14:38:58;5.28;;;2.85;;
41480;SDS011;27217;51.220;5.308;2023-07-16T14:41:23;6.53;;;2.60;;
41480;SDS011;27217;51.220;5.308;2023-07-16T14:43:49;9.65;;;2.90;;
41480;SDS011;27217;51.220;5.308;2023-07-16T14:46:16;6.97;;;3.28;;
41480;SDS011;27217;51.220;5.308;2023-07-16T14:48:42;5.65;;;2.63;;
41480;SDS011;27217;51.220;5.308;2023-07-16T14:51:09;6.45;;;3.42;;